KCHS

Charleston AFB / Intl Airport

Charleston, South Carolina, USA
METAR KCHS 231456Z 24008KT 230V300 10SM FEW030 SCT055 29/21 A3012 RMK AO2 RAB17E29 SLP199 TCU DSNT E P0000 60000 T02890211 50003
Observed Flight Rules
May-23 @ 14:56 UTC (14 minutes ago) Visual Flight Rules
Wind Visibility Clouds
240° at 8 knots 10 miles
  • Few at 3,000' AGL
  • Scattered at 5,500' AGL
Temperatures Readings Precipitation
Current 29°C / 84°F
Dewpoint 21°C / 70°F
Humidity 62%
Altimeter 30.12" Hg
Pressure 1019.9 hPa
Elevation 13
Current Rain 0.005
METAR KCHS 231456Z 24008KT 230V300 10SM FEW030 SCT055 29/21 A3012 RMK AO2 RAB17E29 SLP199 TCU DSNT E P0000 60000 T02890211 50003
Observed Flight Rules
May-23 @ 14:56 UTC
(14 minutes ago)
VFR
Wind Visibility
240° at 8 knots 10 miles
Clouds
  • Few at 3,000' AGL
  • Scattered at 5,500' AGL
Temperature Dewpoint
29°C / 84°F 21°C / 70°F
Humidity Altimeter Pressure
62% 30.12" Hg 1019.9 hPa
Current Rain
0.005